Carpenter, WY

8:17 AM MDT on September 01, 2014 (GMT -0600)
Kimball Municipal-Arraj | Change Station
CLOSE
Current Station
Airport
Location: Kimball,
Elevation: 4925 ft
Nearby Weather Stations

Elev 4925 ft 41.19 °N, 103.68 °W | Updated 42 minutes ago

Mostly Cloudy
Mostly Cloudy
49 °F
Feels Like 49 °F
N
5
Wind Variable Wind from West

Today
High -- | Low -- °F
--% Chance of Precip.
Yesterday
High -- | Low -- °F
Precip. -- in
6:24 AM 7:29 PM
Waxing Crescent, 41% visible
Pressure 30.04 in
Visibility 10.0 miles
Clouds Mostly Cloudy 7500 ft
Dew Point 47 °F
Humidity 93%
Rainfall 0.00 in
Snow Depth Not available.
UV 0 out of 12
Pollen 9.30 out of 12
Air Quality Not available.
Flu Activity Not available.
METAR KIBM 011335Z AUTO 28004KT 10SM BKN075 10/09 A3004 RMK AO2 T00950085

More Conditions Fewer Conditions

Pressure 30.04 in
Visibility 10.0 miles
Clouds Mostly Cloudy 7500 ft
Dew Point 47 °F
Humidity 93%
Rainfall 0.00 in
Snow Depth Not available.
UV 0 out of 12
Pollen 9.30 out of 12
Air Quality Not available.
Flu Activity Not available.
METAR KIBM 011335Z AUTO 28004KT 10SM BKN075 10/09 A3004 RMK AO2 T00950085

More Conditions Fewer Conditions

10-Day Weather Forecast

Almanac

Astronomy

Sep. 01, 2014 Rise Set
Actual Time 6:24 AM MDT 7:29 PM MDT
Civil Twilight 5:55 AM MDT 7:58 PM MDT
Nautical Twilight 5:22 AM MDT 8:31 PM MDT
Astronomical Twilight 4:46 AM MDT 9:06 PM MDT
Moon 1:15 PM MDT 11:29 PM MDT
Length of Visible Light 14h 02m
Length of Day
13h 05m
Tomorrow will be 2m 37s shorter.
Waxing Crescent, 41% of the Moon is Illuminated
Today
Waxing Crescent
Sep 2
First Quarter
Sep 8
Full
Sep 15
Last Quarter
Sep 24
New

Today's Extremes

State Highs State Lows

Community

WunderPhotos

Upload Photos

1,749,237 photos uploaded!

Nearby

Snow Depth

Station Depth Elevation
Crow Creek 9 in 8330 ft
Whiskey Park 1 in 8950 ft
Cinnabar Park 1 in 9690 ft
Brooklyn Lake 1 in 10220 ft
Sand Lake 0 in 10050 ft

Earthquake Activity

City Distance Mag. Time & Date
No recent earthquake activity has been reported nearby.
Minimum magnitude displayed is 2.5.

Coastal Water Temperatures

Place Temperature
No Stations Reporting

Nearby Weather Stations